createdAt,value
2016-02-08T00:00:19.795Z,7.6
2016-02-08T00:01:19.768Z,7.67
2016-02-08T00:02:19.739Z,7.63
2016-02-08T00:03:19.711Z,7.61
2016-02-08T00:04:19.542Z,7.54
2016-02-08T00:05:19.688Z,7.66
2016-02-08T00:06:19.643Z,7.67
2016-02-08T00:07:19.599Z,7.6
2016-02-08T00:08:19.586Z,7.66
2016-02-08T00:09:19.557Z,7.66
2016-02-08T00:10:19.529Z,7.6
2016-02-08T00:11:19.500Z,7.66
2016-02-08T00:12:19.478Z,7.57
2016-02-08T00:13:19.449Z,7.6
2016-02-08T00:14:19.421Z,7.66
2016-02-08T00:15:19.408Z,7.56
2016-02-08T00:16:19.380Z,7.6
2016-02-08T00:17:19.336Z,7.7
2016-02-08T00:18:19.322Z,7.66
2016-02-08T00:19:19.296Z,7.58
2016-02-08T00:20:19.268Z,7.67
2016-02-08T00:21:19.254Z,7.72
2016-02-08T00:22:19.210Z,7.79
2016-02-08T00:23:19.182Z,7.66
2016-02-08T00:24:19.168Z,7.69
2016-02-08T00:25:19.124Z,7.61
2016-02-08T00:26:19.111Z,7.76
2016-02-08T00:27:19.085Z,7.7
2016-02-08T00:28:19.056Z,7.77
2016-02-08T00:29:19.027Z,7.72
2016-02-08T00:30:19.014Z,7.76
2016-02-08T00:31:18.986Z,7.76
2016-02-08T00:32:18.958Z,7.8
2016-02-08T00:33:18.929Z,7.8
2016-02-08T00:34:18.900Z,7.82
2016-02-08T00:35:18.876Z,7.85
2016-02-08T00:36:18.848Z,7.75
2016-02-08T00:37:18.819Z,7.83
2016-02-08T00:38:18.789Z,7.9
2016-02-08T00:39:18.762Z,7.9
2016-02-08T00:40:18.733Z,7.97
2016-02-08T00:41:18.721Z,7.93
2016-02-08T00:42:18.693Z,8
2016-02-08T00:43:18.660Z,7.98
2016-02-08T00:44:18.631Z,8
2016-02-08T00:45:18.618Z,8.01
2016-02-08T00:46:18.590Z,8.03
2016-02-08T00:47:18.560Z,8.05
2016-02-08T00:48:18.548Z,8.12
2016-02-08T00:49:18.503Z,8.1
2016-02-08T00:50:18.475Z,8.09
2016-02-08T00:51:18.462Z,8.19
2016-02-08T00:52:18.426Z,8.15
2016-02-08T00:53:18.413Z,8.15
2016-02-08T00:54:18.400Z,8.15
2016-02-08T00:55:18.356Z,8.26
2016-02-08T00:56:18.328Z,8.19
2016-02-08T00:57:18.299Z,8.23
2016-02-08T00:58:18.271Z,8.26
2016-02-08T00:59:18.244Z,8.24
2016-02-08T01:00:18.230Z,8.33
2016-02-08T01:01:18.201Z,8.33
2016-02-08T01:02:18.177Z,8.37
2016-02-08T01:03:18.164Z,8.44
2016-02-08T01:04:18.136Z,8.38
2016-02-08T01:05:18.106Z,8.41
2016-02-08T01:06:18.078Z,8.45
2016-02-08T01:07:18.034Z,8.46
2016-02-08T01:08:18.022Z,8.53
2016-02-08T01:09:18.009Z,8.52
2016-02-08T01:10:17.965Z,8.56
2016-02-08T01:11:17.939Z,8.55
2016-02-08T01:12:17.926Z,8.53
2016-02-08T01:13:17.898Z,8.66
2016-02-08T01:14:17.870Z,8.63
2016-02-08T01:15:17.857Z,8.63
2016-02-08T01:16:17.813Z,8.63
2016-02-08T01:17:17.785Z,8.64
2016-02-08T01:18:17.787Z,8.6
2016-02-08T01:19:17.743Z,8.64
2016-02-08T01:20:17.715Z,8.64
2016-02-08T01:21:17.687Z,8.64
2016-02-08T01:22:17.673Z,8.66
2016-02-08T01:23:17.646Z,8.7
2016-02-08T01:24:17.616Z,8.69
2016-02-08T01:25:17.588Z,8.64
2016-02-08T01:26:17.559Z,8.7
2016-02-08T01:27:17.547Z,8.76
2016-02-08T01:28:17.518Z,8.78
2016-02-08T01:29:17.490Z,8.71
2016-02-08T01:30:17.462Z,8.78
2016-02-08T01:31:17.449Z,8.78
2016-02-08T01:32:17.420Z,8.81
2016-02-08T01:33:17.391Z,8.78
2016-02-08T01:34:17.362Z,8.78
2016-02-08T01:35:17.334Z,8.73
2016-02-08T01:36:17.321Z,8.78
2016-02-08T01:37:17.294Z,8.81
2016-02-08T01:38:17.265Z,8.79
2016-02-08T01:39:17.237Z,8.79
2016-02-08T01:40:17.223Z,8.84
2016-02-08T01:41:17.191Z,8.87
2016-02-08T01:42:17.163Z,8.91
2016-02-08T01:43:17.134Z,8.82
2016-02-08T01:44:17.122Z,8.85
2016-02-08T01:45:17.094Z,8.88
2016-02-08T01:46:17.065Z,8.85
2016-02-08T01:47:17.038Z,8.84
2016-02-08T01:48:17.009Z,8.92
2016-02-08T01:49:16.979Z,8.91
2016-02-08T01:50:16.969Z,8.91
2016-02-08T01:51:16.940Z,8.91
2016-02-08T01:52:16.911Z,8.91
2016-02-08T01:53:16.883Z,8.95
2016-02-08T01:54:16.869Z,8.95
2016-02-08T01:55:16.841Z,9.03
2016-02-08T01:56:16.812Z,8.91
2016-02-08T01:57:16.799Z,8.91
2016-02-08T01:58:16.756Z,8.99
2016-02-08T01:59:16.743Z,9
2016-02-08T02:00:16.700Z,8.89
2016-02-08T02:01:16.686Z,8.95
2016-02-08T02:02:16.673Z,8.94
2016-02-08T02:03:16.648Z,9.03
2016-02-08T02:04:16.605Z,8.94
2016-02-08T02:05:16.592Z,8.97
2016-02-08T02:06:16.563Z,8.92
2016-02-08T02:07:16.550Z,8.97
2016-02-08T02:08:16.522Z,8.97
2016-02-08T02:09:16.483Z,8.94
2016-02-08T02:10:16.470Z,8.94
2016-02-08T02:11:16.457Z,8.94
2016-02-08T02:12:16.412Z,9.02
2016-02-08T02:13:16.384Z,8.92
2016-02-08T02:14:16.372Z,8.92
2016-02-08T02:15:16.342Z,8.99
2016-02-08T02:16:16.314Z,9.03
2016-02-08T02:17:16.286Z,9.02
2016-02-08T02:18:16.258Z,9.03
2016-02-08T02:19:16.244Z,9.06
2016-02-08T02:20:16.216Z,9.02
2016-02-08T02:21:16.187Z,9
2016-02-08T02:22:16.159Z,9.02
2016-02-08T02:23:16.146Z,9.02
2016-02-08T02:24:16.117Z,9.04
2016-02-08T02:25:16.090Z,9.04
2016-02-08T02:26:16.062Z,9.06
2016-02-08T02:27:16.048Z,9.06
2016-02-08T02:28:16.019Z,9.1
2016-02-08T02:29:15.991Z,9.06
2016-02-08T02:30:15.978Z,9.11
2016-02-08T02:31:15.950Z,9.14
2016-02-08T02:32:15.922Z,9.06
2016-02-08T02:33:15.893Z,9.08
2016-02-08T02:34:15.881Z,9.06
2016-02-08T02:35:15.836Z,9.13
2016-02-08T02:36:15.823Z,9.1
2016-02-08T02:37:15.826Z,9.16
2016-02-08T02:38:15.770Z,9.1
2016-02-08T02:39:15.756Z,9.03
2016-02-08T02:40:15.744Z,9.04
2016-02-08T02:41:15.703Z,9
2016-02-08T02:42:15.674Z,8.97
2016-02-08T02:43:15.661Z,8.97
2016-02-08T02:44:15.618Z,8.91
2016-02-08T02:45:15.588Z,8.97
2016-02-08T02:46:15.593Z,8.89
2016-02-08T02:47:15.549Z,8.87
2016-02-08T02:48:15.521Z,8.82
2016-02-08T02:49:15.508Z,8.88
2016-02-08T02:50:15.479Z,8.78
2016-02-08T02:51:15.450Z,8.76
2016-02-08T02:52:15.423Z,8.81
2016-02-08T02:53:15.410Z,8.76
2016-02-08T02:54:15.368Z,8.69
2016-02-08T02:55:15.355Z,8.7
2016-02-08T02:56:15.326Z,8.71
2016-02-08T02:57:15.298Z,8.7
2016-02-08T02:58:15.285Z,8.69
2016-02-08T02:59:15.257Z,8.67
2016-02-08T03:00:15.432Z,8.66
2016-02-08T03:01:15.200Z,8.73
2016-02-08T03:02:15.187Z,8.7
2016-02-08T03:03:15.143Z,8.7
2016-02-08T03:04:15.176Z,8.73
2016-02-08T03:05:15.102Z,8.79
2016-02-08T03:06:15.073Z,8.73
2016-02-08T03:07:15.059Z,8.69
2016-02-08T03:08:15.017Z,8.82
2016-02-08T03:09:15.003Z,8.74
2016-02-08T03:10:14.990Z,8.76
2016-02-08T03:11:14.946Z,8.81
2016-02-08T03:12:14.919Z,8.78
2016-02-08T03:13:14.907Z,8.79
2016-02-08T03:14:14.877Z,8.85
2016-02-08T03:15:14.849Z,8.79
2016-02-08T03:16:14.852Z,8.74
2016-02-08T03:17:14.807Z,8.81
2016-02-08T03:18:14.624Z,8.82
2016-02-08T03:19:14.751Z,8.92
2016-02-08T03:20:14.738Z,8.95
2016-02-08T03:21:14.698Z,8.94
2016-02-08T03:22:14.670Z,8.88
2016-02-08T03:23:14.642Z,9
2016-02-08T03:24:14.629Z,8.92
2016-02-08T03:25:14.601Z,8.89
2016-02-08T03:26:14.570Z,8.97
2016-02-08T03:27:14.542Z,8.89
2016-02-08T03:28:14.530Z,8.97
2016-02-08T03:29:14.502Z,8.94
2016-02-08T03:30:14.474Z,8.94
2016-02-08T03:31:14.461Z,8.95
2016-02-08T03:32:14.416Z,9
2016-02-08T03:33:14.404Z,9
2016-02-08T03:34:14.375Z,8.94
2016-02-08T03:35:14.362Z,8.92
2016-02-08T03:36:14.318Z,8.87
2016-02-08T03:37:14.305Z,8.82
2016-02-08T03:38:14.277Z,8.85
2016-02-08T03:39:14.248Z,8.82
2016-02-08T03:40:14.220Z,8.89
2016-02-08T03:41:14.207Z,8.81
2016-02-08T03:42:14.179Z,8.84
2016-02-08T03:43:14.151Z,8.84
2016-02-08T03:44:14.122Z,8.82
2016-02-08T03:45:14.094Z,8.82
2016-02-08T03:46:14.080Z,8.91
2016-02-08T03:47:14.052Z,8.79
2016-02-08T03:48:14.042Z,8.82
2016-02-08T03:49:13.997Z,8.81
2016-02-08T03:50:13.984Z,8.81
2016-02-08T03:51:13.945Z,8.81
2016-02-08T03:52:13.916Z,8.82
2016-02-08T03:53:13.903Z,8.82
2016-02-08T03:54:13.875Z,8.92
2016-02-08T03:55:13.846Z,8.89
2016-02-08T03:56:13.818Z,8.87
2016-02-08T03:57:13.790Z,9
2016-02-08T03:58:13.778Z,8.97
2016-02-08T03:59:13.748Z,8.87
2016-02-08T04:00:13.720Z,8.89
2016-02-08T04:01:13.692Z,8.92
2016-02-08T04:02:13.663Z,8.95
2016-02-08T04:03:13.650Z,8.95
2016-02-08T04:04:13.622Z,9.03
2016-02-08T04:05:13.624Z,9
2016-02-08T04:06:13.580Z,8.97
2016-02-08T04:07:13.551Z,9.08
2016-02-08T04:08:13.538Z,9.03
2016-02-08T04:09:13.495Z,9.08
2016-02-08T04:10:13.467Z,9.14
2016-02-08T04:11:13.453Z,9.11
2016-02-08T04:12:13.425Z,9.08
2016-02-08T04:13:13.383Z,9.13
2016-02-08T04:14:13.370Z,9.21
2016-02-08T04:15:13.357Z,9.18
2016-02-08T04:16:13.328Z,9.21
2016-02-08T04:17:13.301Z,9.23
2016-02-08T04:18:13.288Z,9.14
2016-02-08T04:19:13.244Z,9.25
2016-02-08T04:20:13.215Z,9.22
2016-02-08T04:21:13.217Z,9.31
2016-02-08T04:22:13.174Z,9.23
2016-02-08T04:23:13.145Z,9.25
2016-02-08T04:24:13.117Z,9.21
2016-02-08T04:25:13.090Z,9.32
2016-02-08T04:26:13.077Z,9.36
2016-02-08T04:27:13.065Z,9.36
2016-02-08T04:28:13.021Z,9.41
2016-02-08T04:29:13.007Z,9.31
2016-02-08T04:30:12.994Z,9.48
2016-02-08T04:31:12.950Z,9.39
2016-02-08T04:32:12.922Z,9.47
2016-02-08T04:33:12.910Z,9.51
2016-02-08T04:34:12.881Z,9.5
2016-02-08T04:35:12.853Z,9.5
2016-02-08T04:36:12.825Z,9.48
2016-02-08T04:37:12.827Z,9.54
2016-02-08T04:38:12.783Z,9.55
2016-02-08T04:39:12.770Z,9.43
2016-02-08T04:40:12.742Z,9.47
2016-02-08T04:41:12.714Z,9.47
2016-02-08T04:42:12.685Z,9.47
2016-02-08T04:43:12.659Z,9.48
2016-02-08T04:44:12.631Z,9.55
2016-02-08T04:45:12.602Z,9.51
2016-02-08T04:46:12.589Z,9.56
2016-02-08T04:47:12.560Z,9.48
2016-02-08T04:48:12.532Z,9.56
2016-02-08T04:49:12.519Z,9.46
2016-02-08T04:50:12.490Z,9.46
2016-02-08T04:51:12.462Z,9.54
2016-02-08T04:52:12.450Z,9.47
2016-02-08T04:53:12.422Z,9.48
2016-02-08T04:54:12.393Z,9.51
2016-02-08T04:55:12.364Z,9.29
2016-02-08T04:56:12.352Z,9.36
2016-02-08T04:57:12.308Z,9.41
2016-02-08T04:58:12.294Z,9.28
2016-02-08T04:59:12.266Z,9.18
2016-02-08T05:00:12.252Z,9.28
2016-02-08T05:01:12.224Z,9.14
2016-02-08T05:02:12.196Z,9.06
2016-02-08T05:03:12.166Z,9.1
2016-02-08T05:04:12.138Z,8.95
2016-02-08T05:05:12.107Z,9.02
2016-02-08T05:06:12.094Z,8.91
2016-02-08T05:07:12.066Z,8.89
2016-02-08T05:08:12.037Z,8.84
2016-02-08T05:09:12.024Z,8.81
2016-02-08T05:10:12.011Z,8.84
2016-02-08T05:11:11.967Z,8.71
2016-02-08T05:12:11.948Z,8.82
2016-02-08T05:13:11.920Z,8.78
2016-02-08T05:14:11.892Z,8.76
2016-02-08T05:15:11.862Z,8.69
2016-02-08T05:16:11.849Z,8.74
2016-02-08T05:17:11.821Z,8.6
2016-02-08T05:18:11.792Z,8.63
2016-02-08T05:19:11.765Z,8.58
2016-02-08T05:20:11.751Z,8.66
2016-02-08T05:21:11.724Z,8.64
2016-02-08T05:22:11.688Z,8.61
2016-02-08T05:23:11.665Z,8.61
2016-02-08T05:24:11.628Z,8.53
2016-02-08T05:25:11.591Z,8.63
2016-02-08T05:26:11.538Z,8.58
2016-02-08T05:27:11.521Z,8.53
2016-02-08T05:28:11.490Z,8.49
2016-02-08T05:29:11.459Z,8.58
2016-02-08T05:30:11.427Z,8.53
2016-02-08T05:31:11.410Z,8.41
2016-02-08T05:32:11.379Z,8.45
2016-02-08T05:33:11.348Z,8.38
2016-02-08T05:34:11.318Z,8.41
2016-02-08T05:35:11.320Z,8.52
2016-02-08T05:36:11.259Z,8.45
2016-02-08T05:37:11.245Z,8.44
2016-02-08T05:38:11.216Z,8.46
2016-02-08T05:39:11.203Z,8.38
2016-02-08T05:40:11.159Z,8.45
2016-02-08T05:41:11.131Z,8.44
2016-02-08T05:42:11.120Z,8.49
2016-02-08T05:43:11.092Z,8.41
2016-02-08T05:44:11.064Z,8.42
2016-02-08T05:45:11.036Z,8.33
2016-02-08T05:46:11.023Z,8.31
2016-02-08T05:47:10.994Z,8.31
2016-02-08T05:48:10.981Z,8.34
2016-02-08T05:49:10.937Z,8.36
2016-02-08T05:50:10.908Z,8.41
2016-02-08T05:51:10.894Z,8.34
2016-02-08T05:52:10.867Z,8.33
2016-02-08T05:53:10.838Z,8.34
2016-02-08T05:54:10.810Z,8.31
2016-02-08T05:55:10.781Z,8.31
2016-02-08T05:56:10.768Z,8.37
2016-02-08T05:57:10.724Z,8.3
2016-02-08T05:58:10.711Z,8.37
2016-02-08T05:59:10.698Z,8.33
2016-02-08T06:00:10.654Z,8.34
2016-02-08T06:01:10.625Z,8.36
2016-02-08T06:02:10.613Z,8.3
2016-02-08T06:03:10.570Z,8.36
2016-02-08T06:04:10.556Z,8.33
2016-02-08T06:05:10.527Z,8.34
2016-02-08T06:06:10.515Z,8.34
2016-02-08T06:07:10.486Z,8.36
2016-02-08T06:08:10.457Z,8.33
2016-02-08T06:09:10.429Z,8.41
2016-02-08T06:10:10.416Z,8.42
2016-02-08T06:11:10.372Z,8.37
2016-02-08T06:12:10.343Z,8.37
2016-02-08T06:13:10.333Z,8.37
2016-02-08T06:14:10.288Z,8.36
2016-02-08T06:15:10.278Z,8.33
2016-02-08T06:16:10.248Z,8.42
2016-02-08T06:17:10.267Z,8.42
2016-02-08T06:18:10.192Z,8.45
2016-02-08T06:19:10.178Z,8.41
2016-02-08T06:20:10.181Z,8.44
2016-02-08T06:21:10.122Z,8.42
2016-02-08T06:22:10.108Z,8.41
2016-02-08T06:23:10.081Z,8.42
2016-02-08T06:24:10.067Z,8.36
2016-02-08T06:25:10.024Z,8.44
2016-02-08T06:26:09.995Z,8.45
2016-02-08T06:27:09.966Z,8.41
2016-02-08T06:28:09.939Z,8.46
2016-02-08T06:29:09.911Z,8.44
2016-02-08T06:30:09.914Z,8.48
2016-02-08T06:31:09.855Z,8.42
2016-02-08T06:32:09.841Z,8.42
2016-02-08T06:33:09.813Z,8.48
2016-02-08T06:34:09.800Z,8.52
2016-02-08T06:35:09.771Z,8.42
2016-02-08T06:36:09.774Z,8.45
2016-02-08T06:37:09.704Z,8.46
2016-02-08T06:38:09.690Z,8.45
2016-02-08T06:39:09.662Z,8.55
2016-02-08T06:40:09.634Z,8.51
2016-02-08T06:41:09.620Z,8.64
2016-02-08T06:42:09.576Z,8.58
2016-02-08T06:43:09.548Z,8.61
2016-02-08T06:44:09.535Z,8.58
2016-02-08T06:45:09.540Z,8.55
2016-02-08T06:46:09.481Z,8.61
2016-02-08T06:47:09.467Z,8.53
2016-02-08T06:48:09.439Z,8.58
2016-02-08T06:49:09.411Z,8.56
2016-02-08T06:50:09.383Z,8.61
2016-02-08T06:51:09.371Z,8.64
2016-02-08T06:52:09.327Z,8.61
2016-02-08T06:53:09.299Z,8.67
2016-02-08T06:54:09.285Z,8.64
2016-02-08T06:55:09.257Z,8.63
2016-02-08T06:56:09.229Z,8.56
2016-02-08T06:57:09.199Z,8.61
2016-02-08T06:58:09.189Z,8.63
2016-02-08T06:59:09.145Z,8.64
2016-02-08T07:00:09.131Z,8.64
2016-02-08T07:01:09.103Z,8.7
2016-02-08T07:02:09.075Z,8.7
2016-02-08T07:03:09.045Z,8.67
2016-02-08T07:04:09.034Z,8.69
2016-02-08T07:05:09.005Z,8.69
2016-02-08T07:06:08.964Z,8.78
2016-02-08T07:07:08.968Z,8.6
2016-02-08T07:08:08.955Z,8.71
2016-02-08T07:09:08.894Z,8.71
2016-02-08T07:10:08.883Z,8.78
2016-02-08T07:11:08.916Z,8.73
2016-02-08T07:12:08.873Z,8.7
2016-02-08T07:13:08.813Z,8.78
2016-02-08T07:14:08.769Z,8.76
2016-02-08T07:15:08.742Z,8.79
2016-02-08T07:16:08.729Z,8.81
2016-02-08T07:17:08.716Z,8.88
2016-02-08T07:18:08.672Z,8.87
2016-02-08T07:19:08.643Z,8.94
2016-02-08T07:20:08.630Z,8.99
2016-02-08T07:21:08.602Z,9.08
2016-02-08T07:22:08.574Z,9.02
2016-02-08T07:23:08.560Z,9.11
2016-02-08T07:24:08.532Z,9.18
2016-02-08T07:25:08.505Z,9.21
2016-02-08T07:26:08.476Z,9.26
2016-02-08T07:27:08.447Z,9.25
2016-02-08T07:28:08.418Z,9.26
2016-02-08T07:29:08.406Z,9.19
2016-02-08T07:30:08.361Z,9.21
2016-02-08T07:31:08.348Z,9.21
2016-02-08T07:32:08.321Z,9.25
2016-02-08T07:33:08.338Z,9.29
2016-02-08T07:34:08.263Z,9.31
2016-02-08T07:35:08.250Z,9.28
2016-02-08T07:36:08.237Z,9.29
2016-02-08T07:37:08.209Z,9.31
2016-02-08T07:38:08.165Z,9.25
2016-02-08T07:39:08.152Z,9.28
2016-02-08T07:40:08.124Z,9.23
2016-02-08T07:41:08.098Z,9.34
2016-02-08T07:42:08.068Z,9.32
2016-02-08T07:43:08.040Z,9.23
2016-02-08T07:44:08.014Z,9.36
2016-02-08T07:45:08.000Z,9.26
2016-02-08T07:46:07.972Z,9.36
2016-02-08T07:47:07.949Z,9.21
2016-02-08T07:48:07.919Z,9.32
2016-02-08T07:49:07.907Z,9.31
2016-02-08T07:50:07.878Z,9.23
2016-02-08T07:51:07.850Z,9.26
2016-02-08T07:52:07.821Z,9.21
2016-02-08T07:53:07.823Z,9.19
2016-02-08T07:54:07.796Z,9.14
2016-02-08T07:55:07.751Z,9.16
2016-02-08T07:56:07.723Z,9.08
2016-02-08T07:57:07.694Z,9.04
2016-02-08T07:58:07.681Z,9.1
2016-02-08T07:59:07.652Z,8.99
2016-02-08T08:00:07.626Z,9.06
2016-02-08T08:01:07.597Z,8.95
2016-02-08T08:02:07.570Z,8.89
2016-02-08T08:03:07.556Z,9
2016-02-08T08:04:07.558Z,8.92
2016-02-08T08:05:07.546Z,8.87
2016-02-08T08:06:07.564Z,8.88
2016-02-08T08:07:07.457Z,8.88
2016-02-08T08:08:07.428Z,8.88
2016-02-08T08:09:07.416Z,8.79
2016-02-08T08:10:07.372Z,8.71
2016-02-08T08:11:07.343Z,8.81
2016-02-08T08:12:07.314Z,8.78
2016-02-08T08:13:07.307Z,8.81
2016-02-08T08:14:07.277Z,8.78
2016-02-08T08:15:07.250Z,8.69
2016-02-08T08:16:07.221Z,8.74
2016-02-08T08:17:07.207Z,8.71
2016-02-08T08:18:07.179Z,8.7
2016-02-08T08:19:07.151Z,8.78
2016-02-08T08:20:07.137Z,8.67
2016-02-08T08:21:07.093Z,8.74
2016-02-08T08:22:07.066Z,8.67
2016-02-08T08:23:07.052Z,8.71
2016-02-08T08:24:07.025Z,8.67
2016-02-08T08:25:07.011Z,8.67
2016-02-08T08:26:06.982Z,8.76
2016-02-08T08:27:06.956Z,8.69
2016-02-08T08:28:06.927Z,8.71
2016-02-08T08:29:06.897Z,8.67
2016-02-08T08:30:06.889Z,8.74
2016-02-08T08:31:06.844Z,8.73
2016-02-08T08:32:06.816Z,8.71
2016-02-08T08:33:06.802Z,8.71
2016-02-08T08:34:06.774Z,8.7
2016-02-08T08:35:06.762Z,8.71
2016-02-08T08:36:06.717Z,8.71
2016-02-08T08:37:06.706Z,8.7
2016-02-08T08:38:06.708Z,8.73
2016-02-08T08:39:06.647Z,8.73
2016-02-08T08:40:06.635Z,8.73
2016-02-08T08:41:06.606Z,8.73
2016-02-08T08:42:06.578Z,8.69
2016-02-08T08:43:06.551Z,8.69
2016-02-08T08:44:06.521Z,8.73
2016-02-08T08:45:06.509Z,8.63
2016-02-08T08:46:06.464Z,8.67
2016-02-08T08:47:06.451Z,8.66
2016-02-08T08:48:06.423Z,8.63
2016-02-08T08:49:06.395Z,8.66
2016-02-08T08:50:06.367Z,8.71
2016-02-08T08:51:06.355Z,8.7
2016-02-08T08:52:06.326Z,8.79
2016-02-08T08:53:06.298Z,8.71
2016-02-08T08:54:06.285Z,8.69
2016-02-08T08:55:06.240Z,8.7
2016-02-08T08:56:06.213Z,8.64
2016-02-08T08:57:06.200Z,8.71
2016-02-08T08:58:06.172Z,8.73
2016-02-08T08:59:06.142Z,8.7
2016-02-08T09:00:06.114Z,8.81
2016-02-08T09:01:06.102Z,8.81
2016-02-08T09:02:06.074Z,8.79
2016-02-08T09:03:06.045Z,8.79
2016-02-08T09:04:06.032Z,8.76
2016-02-08T09:05:06.055Z,8.78
2016-02-08T09:06:05.963Z,8.76
2016-02-08T09:07:05.935Z,8.78
2016-02-08T09:08:05.922Z,8.78
2016-02-08T09:09:05.893Z,8.78
2016-02-08T09:10:05.866Z,8.73
2016-02-08T09:11:05.854Z,8.81
2016-02-08T09:12:05.827Z,8.79
2016-02-08T09:13:05.799Z,8.79
2016-02-08T09:14:05.770Z,8.82
2016-02-08T09:15:05.743Z,8.79
2016-02-08T09:16:05.714Z,8.78
2016-02-08T09:17:04.966Z,8.76
2016-02-08T09:18:06.096Z,8.82
2016-02-08T09:19:05.660Z,8.74
2016-02-08T09:20:05.635Z,8.74
2016-02-08T09:21:05.590Z,8.7
2016-02-08T09:22:05.562Z,8.74
2016-02-08T09:23:05.549Z,8.69
2016-02-08T09:24:05.551Z,8.7
2016-02-08T09:25:05.493Z,8.69
2016-02-08T09:26:05.464Z,8.7
2016-02-08T09:27:05.450Z,8.67
2016-02-08T09:28:05.423Z,8.69
2016-02-08T09:29:05.393Z,8.74
2016-02-08T09:30:05.380Z,8.69
2016-02-08T09:31:05.337Z,8.69
2016-02-08T09:32:05.323Z,8.67
2016-02-08T09:33:05.295Z,8.67
2016-02-08T09:34:05.282Z,8.66
2016-02-08T09:35:05.238Z,8.6
2016-02-08T09:36:05.225Z,8.61
2016-02-08T09:37:05.196Z,8.63
2016-02-08T09:38:05.167Z,8.7
2016-02-08T09:39:05.155Z,8.6
2016-02-08T09:40:05.127Z,8.74
2016-02-08T09:41:05.099Z,8.64
2016-02-08T09:42:05.070Z,8.66
2016-02-08T09:43:05.056Z,8.69
2016-02-08T09:44:05.014Z,8.74
2016-02-08T09:45:05.002Z,8.71
2016-02-08T09:46:04.989Z,8.82
2016-02-08T09:47:04.961Z,8.82
2016-02-08T09:48:04.932Z,8.92
2016-02-08T09:49:04.903Z,9
2016-02-08T09:50:04.874Z,9.02
2016-02-08T09:51:04.846Z,9.06
2016-02-08T09:52:04.818Z,9.14
2016-02-08T09:53:04.806Z,9.14
2016-02-08T09:54:04.794Z,9.25
2016-02-08T09:55:04.750Z,9.23
2016-02-08T09:56:04.736Z,9.26
2016-02-08T09:57:04.709Z,9.32
2016-02-08T09:58:04.679Z,9.39
2016-02-08T09:59:04.650Z,9.44
2016-02-08T10:00:04.639Z,9.51
2016-02-08T10:01:04.609Z,9.44
2016-02-08T10:02:04.581Z,9.56
2016-02-08T10:03:04.568Z,9.64
2016-02-08T10:04:04.539Z,9.73
2016-02-08T10:05:04.511Z,9.82
2016-02-08T10:06:04.497Z,9.79
2016-02-08T10:07:05.116Z,9.87
2016-02-08T10:08:04.461Z,9.92
2016-02-08T10:09:04.433Z,9.98
2016-02-08T10:10:04.420Z,10.04
2016-02-08T10:11:04.423Z,10.09
2016-02-08T10:12:04.364Z,10.2
2016-02-08T10:13:04.350Z,10.23
2016-02-08T10:14:04.306Z,10.3
2016-02-08T10:15:04.296Z,10.38
2016-02-08T10:16:04.282Z,10.31
2016-02-08T10:17:04.254Z,10.41
2016-02-08T10:18:04.226Z,10.48
2016-02-08T10:19:04.213Z,10.48
2016-02-08T10:20:04.186Z,10.46
2016-02-08T10:21:04.156Z,10.49
2016-02-08T10:22:04.144Z,10.49
2016-02-08T10:23:04.131Z,10.48
2016-02-08T10:24:04.086Z,10.53
2016-02-08T10:25:04.074Z,10.44
2016-02-08T10:26:04.061Z,10.48
2016-02-08T10:27:04.032Z,10.49
2016-02-08T10:28:04.005Z,10.42
2016-02-08T10:29:03.991Z,10.42
2016-02-08T10:30:03.963Z,10.59
2016-02-08T10:31:03.933Z,10.53
2016-02-08T10:32:03.922Z,10.59
2016-02-08T10:33:03.908Z,10.49
2016-02-08T10:34:03.864Z,10.44
2016-02-08T10:35:03.852Z,10.48
2016-02-08T10:36:03.822Z,10.41
2016-02-08T10:37:03.794Z,10.38
2016-02-08T10:38:03.782Z,10.38
2016-02-08T10:39:03.752Z,10.41
2016-02-08T10:40:03.741Z,10.4
2016-02-08T10:41:03.711Z,10.34
2016-02-08T10:42:03.684Z,10.28
2016-02-08T10:43:03.672Z,10.34
2016-02-08T10:44:03.674Z,10.25
2016-02-08T10:45:03.615Z,10.33
2016-02-08T10:46:03.601Z,10.26
2016-02-08T10:47:03.589Z,10.28
2016-02-08T10:48:03.544Z,10.31
2016-02-08T10:49:03.532Z,10.22
2016-02-08T10:50:03.519Z,10.19
2016-02-08T10:51:03.474Z,10.34
2016-02-08T10:52:03.461Z,10.23
2016-02-08T10:53:03.433Z,10.23
2016-02-08T10:54:03.419Z,10.33
2016-02-08T10:55:03.391Z,10.22
2016-02-08T10:56:03.362Z,10.34
2016-02-08T10:57:03.350Z,10.3
2016-02-08T10:58:03.321Z,10.33
2016-02-08T10:59:03.293Z,10.28
2016-02-08T11:00:03.280Z,10.34
2016-02-08T11:01:03.266Z,10.4
2016-02-08T11:02:03.223Z,10.34
2016-02-08T11:03:03.211Z,10.35
2016-02-08T11:04:03.198Z,10.33
2016-02-08T11:05:03.169Z,10.28
2016-02-08T11:06:03.140Z,10.31
2016-02-08T11:07:03.128Z,10.3
2016-02-08T11:08:03.099Z,10.31
2016-02-08T11:09:03.089Z,10.31
2016-02-08T11:10:03.061Z,10.34
2016-02-08T11:11:03.037Z,10.3
2016-02-08T11:12:02.992Z,10.31
2016-02-08T11:13:02.978Z,10.34
2016-02-08T11:14:02.950Z,10.34
2016-02-08T11:15:02.937Z,10.3
2016-02-08T11:16:02.925Z,10.26
2016-02-08T11:17:02.896Z,10.34
2016-02-08T11:18:02.868Z,10.37
2016-02-08T11:19:02.840Z,10.28
2016-02-08T11:20:02.826Z,10.34
2016-02-08T11:21:02.799Z,10.35
2016-02-08T11:22:02.771Z,10.37
2016-02-08T11:23:02.757Z,10.4
2016-02-08T11:24:02.744Z,10.34
2016-02-08T11:25:02.701Z,10.38
2016-02-08T11:26:02.689Z,10.46
2016-02-08T11:27:02.675Z,10.42
2016-02-08T11:28:02.631Z,10.53
2016-02-08T11:29:02.619Z,10.49
2016-02-08T11:30:02.593Z,10.57
2016-02-08T11:31:02.565Z,10.57
2016-02-08T11:32:02.553Z,10.68
2016-02-08T11:33:02.540Z,10.63
2016-02-08T11:34:02.511Z,10.69
2016-02-08T11:35:02.482Z,10.74
2016-02-08T11:36:02.484Z,10.75
2016-02-08T11:37:02.441Z,10.71
2016-02-08T11:38:02.420Z,10.82
2016-02-08T11:39:02.406Z,10.82
2016-02-08T11:40:02.378Z,10.86
2016-02-08T11:41:02.350Z,10.87
2016-02-08T11:42:02.337Z,10.89
2016-02-08T11:43:02.308Z,10.89
2016-02-08T11:44:02.282Z,10.86
2016-02-08T11:45:02.269Z,11
2016-02-08T11:46:02.241Z,10.96
2016-02-08T11:47:02.228Z,11.04
2016-02-08T11:48:02.200Z,11.1
2016-02-08T11:49:02.172Z,11.05
2016-02-08T11:50:02.158Z,11.05
2016-02-08T11:51:02.146Z,11.05
2016-02-08T11:52:02.134Z,11
2016-02-08T11:53:02.089Z,11.05
2016-02-08T11:54:02.092Z,11.12
2016-02-08T11:55:02.047Z,11.07
2016-02-08T11:56:02.036Z,11.04
2016-02-08T11:57:02.011Z,11.11
2016-02-08T11:58:01.982Z,11.05
2016-02-08T11:59:01.954Z,11.05
2016-02-08T12:00:01.944Z,11.11
2016-02-08T12:01:01.916Z,11.1
2016-02-08T12:02:01.886Z,11.1
2016-02-08T12:03:01.874Z,10.93
2016-02-08T12:04:01.861Z,11.02
2016-02-08T12:05:01.834Z,10.96
2016-02-08T12:06:01.805Z,10.99
2016-02-08T12:07:01.797Z,10.94
2016-02-08T12:08:01.769Z,11.05
2016-02-08T12:09:01.739Z,10.99
2016-02-08T12:10:01.727Z,11
2016-02-08T12:11:01.713Z,10.96
2016-02-08T12:12:01.670Z,10.93
2016-02-08T12:13:01.658Z,10.99
2016-02-08T12:14:01.628Z,10.97
2016-02-08T12:15:01.601Z,11.02
2016-02-08T12:16:01.588Z,10.92
2016-02-08T12:17:01.575Z,10.89
2016-02-08T12:18:01.561Z,10.93
2016-02-08T12:19:01.517Z,10.86
2016-02-08T12:20:01.520Z,10.89
2016-02-08T12:21:01.508Z,10.86
2016-02-08T12:22:01.447Z,10.84
2016-02-08T12:23:01.435Z,10.82
2016-02-08T12:24:01.422Z,10.82
2016-02-08T12:25:01.408Z,10.75
2016-02-08T12:26:01.365Z,10.87
2016-02-08T12:27:01.337Z,10.79
2016-02-08T12:28:01.324Z,10.86
2016-02-08T12:29:01.295Z,10.76
2016-02-08T12:30:01.267Z,10.75
2016-02-08T12:31:01.254Z,10.79
2016-02-08T12:32:01.350Z,10.79
2016-02-08T12:33:01.213Z,10.87
2016-02-08T12:34:01.183Z,10.84
2016-02-08T12:35:01.172Z,10.81
2016-02-08T12:36:01.143Z,10.84
2016-02-08T12:37:01.115Z,10.72
2016-02-08T12:38:01.087Z,10.72
2016-02-08T12:39:01.073Z,10.34
2016-02-08T12:40:01.046Z,9.98
2016-02-08T12:41:01.018Z,9.58
2016-02-08T12:42:01.004Z,9.21
2016-02-08T12:43:00.977Z,8.89
2016-02-08T12:44:00.949Z,8.69
2016-02-08T12:45:00.935Z,8.52
2016-02-08T12:46:00.907Z,8.26
2016-02-08T12:47:00.879Z,8.26
2016-02-08T12:48:00.851Z,8.19
2016-02-08T12:49:00.838Z,8.1
2016-02-08T12:50:00.808Z,8.03
2016-02-08T12:51:00.780Z,8.05
2016-02-08T12:52:00.767Z,8.09
2016-02-08T12:53:00.739Z,7.98
2016-02-08T12:54:00.726Z,7.97
2016-02-08T12:55:00.697Z,8.01
2016-02-08T12:56:00.668Z,8.08
2016-02-08T12:57:00.657Z,7.98
2016-02-08T12:58:00.627Z,7.98
2016-02-08T12:59:00.598Z,7.95
2016-02-08T13:00:00.571Z,8
2016-02-08T13:01:00.542Z,8
2016-02-08T13:02:00.530Z,7.94
2016-02-08T13:03:00.501Z,8.01
2016-02-08T13:04:00.472Z,8.01
2016-02-08T13:05:00.460Z,7.97
2016-02-08T13:06:00.432Z,8.06
2016-02-08T13:07:00.402Z,8.03
2016-02-08T13:08:00.367Z,8.03
2016-02-08T13:09:00.355Z,8.05
2016-02-08T13:10:00.327Z,8.12
2016-02-08T13:11:00.298Z,8.06
2016-02-08T13:12:00.269Z,8.19
2016-02-08T13:13:00.257Z,8.18
2016-02-08T13:14:00.228Z,8.16
2016-02-08T13:15:00.200Z,8.26
2016-02-08T13:16:00.170Z,8.2
2016-02-08T13:17:00.158Z,8.27